sensor_id;sensor_type;location;lat;lon;timestamp;pressure;altitude;pressure_sealevel;temperature;humidity
52947;BME280;45776;40.400;17.260;2022-08-23T00:01:31;100481.63;;;25.16;100.00
52947;BME280;45776;40.400;17.260;2022-08-23T00:04:05;100481.19;;;25.31;100.00
52947;BME280;45776;40.400;17.260;2022-08-23T00:06:31;100475.72;;;25.36;100.00
52947;BME280;45776;40.400;17.260;2022-08-23T00:08:57;100477.34;;;25.12;100.00
52947;BME280;45776;40.400;17.260;2022-08-23T00:16:37;100473.34;;;24.98;100.00
52947;BME280;45776;40.400;17.260;2022-08-23T00:19:04;100477.69;;;25.01;100.00
52947;BME280;45776;40.400;17.260;2022-08-23T00:21:30;100476.28;;;24.89;100.00
52947;BME280;45776;40.400;17.260;2022-08-23T00:23:56;100479.13;;;24.83;100.00
52947;BME280;45776;40.400;17.260;2022-08-23T00:26:21;100479.66;;;24.94;100.00
52947;BME280;45776;40.400;17.260;2022-08-23T00:28:48;100478.34;;;24.79;100.00
52947;BME280;45776;40.400;17.260;2022-08-23T00:31:14;100477.13;;;24.89;100.00
52947;BME280;45776;40.400;17.260;2022-08-23T00:33:40;100477.41;;;24.80;100.00
52947;BME280;45776;40.400;17.260;2022-08-23T00:36:05;100482.31;;;24.61;100.00
52947;BME280;45776;40.400;17.260;2022-08-23T00:38:31;100485.16;;;24.55;100.00
52947;BME280;45776;40.400;17.260;2022-08-23T00:40:57;100486.03;;;24.55;100.00
52947;BME280;45776;40.400;17.260;2022-08-23T00:43:49;100484.56;;;24.45;100.00
52947;BME280;45776;40.400;17.260;2022-08-23T00:46:54;100490.94;;;24.38;100.00
52947;BME280;45776;40.400;17.260;2022-08-23T00:49:39;100490.75;;;24.44;100.00
52947;BME280;45776;40.400;17.260;2022-08-23T00:54:39;100487.69;;;24.26;100.00
52947;BME280;45776;40.400;17.260;2022-08-23T00:57:12;100478.78;;;24.31;100.00
52947;BME280;45776;40.400;17.260;2022-08-23T00:59:41;100484.63;;;24.44;100.00
52947;BME280;45776;40.400;17.260;2022-08-23T01:02:07;100473.88;;;24.48;100.00
52947;BME280;45776;40.400;17.260;2022-08-23T01:04:39;100484.19;;;24.26;100.00
52947;BME280;45776;40.400;17.260;2022-08-23T01:10:24;100484.88;;;24.33;100.00
52947;BME280;45776;40.400;17.260;2022-08-23T01:12:55;100481.44;;;24.29;100.00
52947;BME280;45776;40.400;17.260;2022-08-23T01:15:29;100484.97;;;24.30;100.00
52947;BME280;45776;40.400;17.260;2022-08-23T01:18:02;100479.88;;;24.23;100.00
52947;BME280;45776;40.400;17.260;2022-08-23T01:20:33;100476.03;;;24.01;100.00
52947;BME280;45776;40.400;17.260;2022-08-23T01:26:03;100481.88;;;24.14;100.00
52947;BME280;45776;40.400;17.260;2022-08-23T01:28:30;100477.69;;;24.05;100.00
52947;BME280;45776;40.400;17.260;2022-08-23T01:30:56;100476.41;;;24.20;100.00
52947;BME280;45776;40.400;17.260;2022-08-23T01:33:22;100486.31;;;24.13;100.00
52947;BME280;45776;40.400;17.260;2022-08-23T01:35:51;100479.03;;;24.20;100.00
52947;BME280;45776;40.400;17.260;2022-08-23T01:38:18;100479.09;;;24.18;100.00
52947;BME280;45776;40.400;17.260;2022-08-23T01:40:44;100474.56;;;24.23;100.00
52947;BME280;45776;40.400;17.260;2022-08-23T01:43:10;100478.31;;;24.15;100.00
52947;BME280;45776;40.400;17.260;2022-08-23T01:45:38;100477.47;;;24.13;100.00
52947;BME280;45776;40.400;17.260;2022-08-23T01:48:04;100478.31;;;24.15;100.00
52947;BME280;45776;40.400;17.260;2022-08-23T01:50:30;100484.97;;;24.30;100.00
52947;BME280;45776;40.400;17.260;2022-08-23T01:52:56;100480.91;;;24.16;100.00
52947;BME280;45776;40.400;17.260;2022-08-23T01:55:22;100482.81;;;24.11;100.00
52947;BME280;45776;40.400;17.260;2022-08-23T01:57:55;100483.69;;;24.12;100.00
52947;BME280;45776;40.400;17.260;2022-08-23T02:00:25;100489.00;;;24.12;100.00
52947;BME280;45776;40.400;17.260;2022-08-23T02:02:51;100483.66;;;24.13;100.00
52947;BME280;45776;40.400;17.260;2022-08-23T02:05:17;100487.56;;;23.98;100.00
52947;BME280;45776;40.400;17.260;2022-08-23T02:07:43;100491.09;;;23.99;100.00
52947;BME280;45776;40.400;17.260;2022-08-23T02:10:09;100494.66;;;23.96;100.00
52947;BME280;45776;40.400;17.260;2022-08-23T02:12:35;100487.69;;;23.92;100.00
52947;BME280;45776;40.400;17.260;2022-08-23T02:15:02;100495.78;;;23.86;100.00
52947;BME280;45776;40.400;17.260;2022-08-23T02:17:28;100499.09;;;23.96;100.00
52947;BME280;45776;40.400;17.260;2022-08-23T02:19:53;100494.53;;;24.01;100.00
52947;BME280;45776;40.400;17.260;2022-08-23T02:22:20;100491.81;;;24.04;100.00
52947;BME280;45776;40.400;17.260;2022-08-23T02:24:46;100489.25;;;24.01;100.00
52947;BME280;45776;40.400;17.260;2022-08-23T02:27:14;100498.94;;;24.02;100.00
52947;BME280;45776;40.400;17.260;2022-08-23T02:29:41;100493.44;;;24.09;100.00
52947;BME280;45776;40.400;17.260;2022-08-23T02:32:07;100503.47;;;23.97;100.00
52947;BME280;45776;40.400;17.260;2022-08-23T02:34:33;100503.53;;;23.93;100.00
52947;BME280;45776;40.400;17.260;2022-08-23T02:36:59;100499.84;;;24.01;100.00
52947;BME280;45776;40.400;17.260;2022-08-23T02:39:26;100514.72;;;24.05;100.00
52947;BME280;45776;40.400;17.260;2022-08-23T02:41:51;100508.41;;;24.10;100.00
52947;BME280;45776;40.400;17.260;2022-08-23T02:44:18;100511.47;;;23.93;100.00
52947;BME280;45776;40.400;17.260;2022-08-23T02:46:44;100516.69;;;23.97;100.00
52947;BME280;45776;40.400;17.260;2022-08-23T02:49:10;100518.28;;;24.04;100.00
52947;BME280;45776;40.400;17.260;2022-08-23T02:51:37;100526.81;;;24.15;100.00
52947;BME280;45776;40.400;17.260;2022-08-23T02:54:03;100527.06;;;24.06;100.00
52947;BME280;45776;40.400;17.260;2022-08-23T02:56:28;100528.19;;;23.96;100.00
52947;BME280;45776;40.400;17.260;2022-08-23T02:58:54;100527.06;;;24.04;100.00
52947;BME280;45776;40.400;17.260;2022-08-23T03:01:26;100534.22;;;24.01;100.00
52947;BME280;45776;40.400;17.260;2022-08-23T03:03:53;100536.13;;;23.96;100.00
52947;BME280;45776;40.400;17.260;2022-08-23T03:06:19;100541.69;;;23.83;100.00
52947;BME280;45776;40.400;17.260;2022-08-23T03:08:45;100535.53;;;23.83;100.00
52947;BME280;45776;40.400;17.260;2022-08-23T03:11:16;100542.84;;;23.71;100.00
52947;BME280;45776;40.400;17.260;2022-08-23T03:13:43;100540.91;;;23.79;100.00
52947;BME280;45776;40.400;17.260;2022-08-23T03:16:10;100545.81;;;23.57;100.00
52947;BME280;45776;40.400;17.260;2022-08-23T03:18:37;100543.72;;;23.72;100.00
52947;BME280;45776;40.400;17.260;2022-08-23T03:21:04;100551.59;;;23.73;100.00
52947;BME280;45776;40.400;17.260;2022-08-23T03:23:30;100558.69;;;23.73;100.00
52947;BME280;45776;40.400;17.260;2022-08-23T03:25:58;100549.63;;;23.83;100.00
52947;BME280;45776;40.400;17.260;2022-08-23T03:28:24;100553.13;;;23.84;100.00
52947;BME280;45776;40.400;17.260;2022-08-23T03:30:50;100556.09;;;23.70;100.00
52947;BME280;45776;40.400;17.260;2022-08-23T03:33:17;100556.94;;;23.72;100.00
52947;BME280;45776;40.400;17.260;2022-08-23T03:35:42;100549.91;;;23.71;100.00
52947;BME280;45776;40.400;17.260;2022-08-23T03:38:08;100550.91;;;23.67;100.00
52947;BME280;45776;40.400;17.260;2022-08-23T03:40:34;100558.25;;;23.52;100.00
52947;BME280;45776;40.400;17.260;2022-08-23T03:42:59;100544.47;;;23.39;100.00
52947;BME280;45776;40.400;17.260;2022-08-23T03:45:26;100557.66;;;23.41;100.00
52947;BME280;45776;40.400;17.260;2022-08-23T03:47:51;100557.13;;;23.23;100.00
52947;BME280;45776;40.400;17.260;2022-08-23T03:50:17;100557.09;;;23.26;100.00
52947;BME280;45776;40.400;17.260;2022-08-23T03:52:43;100561.44;;;23.29;100.00
52947;BME280;45776;40.400;17.260;2022-08-23T03:55:08;100558.88;;;23.24;100.00
52947;BME280;45776;40.400;17.260;2022-08-23T03:57:34;100556.28;;;23.23;100.00
52947;BME280;45776;40.400;17.260;2022-08-23T03:59:59;100563.44;;;23.16;100.00
52947;BME280;45776;40.400;17.260;2022-08-23T04:02:25;100556.44;;;23.13;100.00
52947;BME280;45776;40.400;17.260;2022-08-23T04:04:51;100556.50;;;23.10;100.00
52947;BME280;45776;40.400;17.260;2022-08-23T04:07:21;100567.16;;;23.06;100.00
52947;BME280;45776;40.400;17.260;2022-08-23T04:09:46;100557.28;;;23.14;100.00
52947;BME280;45776;40.400;17.260;2022-08-23T04:12:12;100574.28;;;23.02;100.00
52947;BME280;45776;40.400;17.260;2022-08-23T04:14:38;100579.47;;;23.07;100.00
52947;BME280;45776;40.400;17.260;2022-08-23T04:17:04;100576.00;;;23.03;100.00
52947;BME280;45776;40.400;17.260;2022-08-23T04:19:29;100581.09;;;23.12;100.00
52947;BME280;45776;40.400;17.260;2022-08-23T04:21:55;100577.63;;;23.10;100.00
52947;BME280;45776;40.400;17.260;2022-08-23T04:24:21;100582.81;;;23.15;100.00
52947;BME280;45776;40.400;17.260;2022-08-23T04:26:46;100578.38;;;23.17;100.00
52947;BME280;45776;40.400;17.260;2022-08-23T04:29:13;100574.88;;;23.18;100.00
52947;BME280;45776;40.400;17.260;2022-08-23T04:31:42;100575.56;;;23.26;100.00
52947;BME280;45776;40.400;17.260;2022-08-23T04:34:08;100576.63;;;23.18;100.00
52947;BME280;45776;40.400;17.260;2022-08-23T04:36:39;100587.09;;;23.22;100.00
52947;BME280;45776;40.400;17.260;2022-08-23T04:39:06;100593.97;;;23.31;100.00
52947;BME280;45776;40.400;17.260;2022-08-23T04:41:31;100591.25;;;23.34;100.00
52947;BME280;45776;40.400;17.260;2022-08-23T04:44:15;100590.31;;;23.37;100.00
52947;BME280;45776;40.400;17.260;2022-08-23T04:46:41;100596.19;;;23.51;100.00
52947;BME280;45776;40.400;17.260;2022-08-23T04:49:09;100594.47;;;23.48;100.00
52947;BME280;45776;40.400;17.260;2022-08-23T04:51:34;100596.28;;;23.46;100.00
52947;BME280;45776;40.400;17.260;2022-08-23T04:54:01;100588.97;;;23.59;100.00
52947;BME280;45776;40.400;17.260;2022-08-23T04:56:26;100588.91;;;23.61;100.00
52947;BME280;45776;40.400;17.260;2022-08-23T04:58:53;100596.50;;;23.76;100.00
52947;BME280;45776;40.400;17.260;2022-08-23T05:01:19;100592.34;;;23.65;100.00
52947;BME280;45776;40.400;17.260;2022-08-23T05:03:44;100594.75;;;23.75;100.00
52947;BME280;45776;40.400;17.260;2022-08-23T05:06:10;100592.84;;;23.81;100.00
52947;BME280;45776;40.400;17.260;2022-08-23T05:08:36;100591.97;;;23.82;100.00
52947;BME280;45776;40.400;17.260;2022-08-23T05:11:04;100600.16;;;23.71;100.00
52947;BME280;45776;40.400;17.260;2022-08-23T05:13:30;100592.84;;;23.81;100.00
52947;BME280;45776;40.400;17.260;2022-08-23T05:15:56;100594.00;;;23.70;100.00
52947;BME280;45776;40.400;17.260;2022-08-23T05:18:22;100600.78;;;23.81;100.00
52947;BME280;45776;40.400;17.260;2022-08-23T05:20:47;100602.53;;;23.83;100.00
52947;BME280;45776;40.400;17.260;2022-08-23T05:23:13;100604.38;;;23.78;100.00
52947;BME280;45776;40.400;17.260;2022-08-23T05:25:39;100598.84;;;23.89;100.00
52947;BME280;45776;40.400;17.260;2022-08-23T05:28:19;100602.56;;;23.80;100.00
52947;BME280;45776;40.400;17.260;2022-08-23T05:30:52;100601.41;;;23.93;100.00
52947;BME280;45776;40.400;17.260;2022-08-23T05:33:18;100606.72;;;23.92;100.00
52947;BME280;45776;40.400;17.260;2022-08-23T05:35:43;100607.63;;;23.91;100.00
52947;BME280;45776;40.400;17.260;2022-08-23T05:38:09;100617.28;;;23.93;100.00
52947;BME280;45776;40.400;17.260;2022-08-23T05:40:34;100615.47;;;23.96;100.00
52947;BME280;45776;40.400;17.260;2022-08-23T05:43:00;100614.09;;;23.77;100.00
52947;BME280;45776;40.400;17.260;2022-08-23T05:45:25;100609.63;;;23.81;100.00
52947;BME280;45776;40.400;17.260;2022-08-23T05:47:50;100615.75;;;23.83;100.00
52947;BME280;45776;40.400;17.260;2022-08-23T05:50:16;100613.66;;;23.98;100.00
52947;BME280;45776;40.400;17.260;2022-08-23T05:52:41;100618.38;;;23.83;100.00
52947;BME280;45776;40.400;17.260;2022-08-23T05:55:07;100614.69;;;23.89;100.00
52947;BME280;45776;40.400;17.260;2022-08-23T05:57:34;100606.88;;;23.84;100.00
52947;BME280;45776;40.400;17.260;2022-08-23T06:00:06;100616.66;;;23.81;100.00
52947;BME280;45776;40.400;17.260;2022-08-23T06:02:34;100610.19;;;23.96;100.00
52947;BME280;45776;40.400;17.260;2022-08-23T06:04:59;100615.53;;;23.94;100.00
52947;BME280;45776;40.400;17.260;2022-08-23T06:07:24;100619.44;;;24.14;100.00
52947;BME280;45776;40.400;17.260;2022-08-23T06:09:50;100611.50;;;24.14;100.00
52947;BME280;45776;40.400;17.260;2022-08-23T06:12:16;100616.31;;;23.96;100.00
52947;BME280;45776;40.400;17.260;2022-08-23T06:14:42;100619.72;;;24.03;100.00
52947;BME280;45776;40.400;17.260;2022-08-23T06:17:08;100620.47;;;24.08;100.00
52947;BME280;45776;40.400;17.260;2022-08-23T06:19:33;100621.19;;;24.15;100.00
52947;BME280;45776;40.400;17.260;2022-08-23T06:21:59;100623.34;;;23.99;100.00
52947;BME280;45776;40.400;17.260;2022-08-23T06:24:24;100621.72;;;23.91;100.00
52947;BME280;45776;40.400;17.260;2022-08-23T06:26:51;100618.88;;;24.01;100.00
52947;BME280;45776;40.400;17.260;2022-08-23T06:29:18;100616.78;;;24.15;100.00
52947;BME280;45776;40.400;17.260;2022-08-23T06:31:46;100620.13;;;24.22;100.00
52947;BME280;45776;40.400;17.260;2022-08-23T06:36:56;100629.25;;;24.10;100.00
52947;BME280;45776;40.400;17.260;2022-08-23T06:39:24;100618.38;;;24.21;100.00
52947;BME280;45776;40.400;17.260;2022-08-23T06:41:50;100616.63;;;24.21;100.00
52947;BME280;45776;40.400;17.260;2022-08-23T06:44:17;100619.81;;;23.98;100.00
52947;BME280;45776;40.400;17.260;2022-08-23T06:46:44;100626.53;;;24.13;100.00
52947;BME280;45776;40.400;17.260;2022-08-23T06:49:12;100625.72;;;24.09;100.00
52947;BME280;45776;40.400;17.260;2022-08-23T06:51:43;100618.13;;;24.32;100.00
52947;BME280;45776;40.400;17.260;2022-08-23T06:54:12;100624.09;;;24.40;100.00
52947;BME280;45776;40.400;17.260;2022-08-23T06:56:39;100617.59;;;24.53;100.00
52947;BME280;45776;40.400;17.260;2022-08-23T06:59:05;100628.59;;;24.36;100.00
52947;BME280;45776;40.400;17.260;2022-08-23T07:04:07;100627.28;;;24.54;100.00
52947;BME280;45776;40.400;17.260;2022-08-23T07:06:34;100635.03;;;24.61;100.00
52947;BME280;45776;40.400;17.260;2022-08-23T07:09:00;100637.88;;;24.53;100.00
52947;BME280;45776;40.400;17.260;2022-08-23T07:11:26;100639.56;;;24.57;100.00
52947;BME280;45776;40.400;17.260;2022-08-23T07:13:56;100640.81;;;24.78;100.00
52947;BME280;45776;40.400;17.260;2022-08-23T07:16:24;100640.38;;;24.94;100.00
52947;BME280;45776;40.400;17.260;2022-08-23T07:18:50;100639.19;;;25.04;100.00
52947;BME280;45776;40.400;17.260;2022-08-23T07:21:17;100633.56;;;25.16;100.00
52947;BME280;45776;40.400;17.260;2022-08-23T07:23:44;100644.25;;;25.13;100.00
52947;BME280;45776;40.400;17.260;2022-08-23T07:26:13;100649.16;;;25.27;100.00
52947;BME280;45776;40.400;17.260;2022-08-23T07:28:40;100651.63;;;25.33;100.00
52947;BME280;45776;40.400;17.260;2022-08-23T07:31:15;100657.28;;;25.52;100.00
52947;BME280;45776;40.400;17.260;2022-08-23T07:33:42;100653.91;;;25.47;100.00
52947;BME280;45776;40.400;17.260;2022-08-23T07:36:08;100653.66;;;25.57;100.00
52947;BME280;45776;40.400;17.260;2022-08-23T07:38:34;100657.66;;;25.70;100.00
52947;BME280;45776;40.400;17.260;2022-08-23T07:41:01;100657.78;;;25.65;100.00
52947;BME280;45776;40.400;17.260;2022-08-23T07:43:31;100655.59;;;25.80;100.00
52947;BME280;45776;40.400;17.260;2022-08-23T07:45:57;100668.28;;;25.98;100.00
52947;BME280;45776;40.400;17.260;2022-08-23T07:48:23;100673.38;;;26.05;100.00
52947;BME280;45776;40.400;17.260;2022-08-23T07:50:53;100665.94;;;26.18;100.00
52947;BME280;45776;40.400;17.260;2022-08-23T07:53:19;100665.31;;;26.09;100.00
52947;BME280;45776;40.400;17.260;2022-08-23T07:55:45;100666.22;;;26.08;100.00
52947;BME280;45776;40.400;17.260;2022-08-23T07:58:10;100667.94;;;26.11;100.00
52947;BME280;45776;40.400;17.260;2022-08-23T08:00:37;100663.91;;;26.26;100.00
52947;BME280;45776;40.400;17.260;2022-08-23T08:03:03;100666.25;;;26.35;100.00
52947;BME280;45776;40.400;17.260;2022-08-23T08:05:31;100665.69;;;26.52;100.00
52947;BME280;45776;40.400;17.260;2022-08-23T08:07:57;100658.44;;;26.57;100.00
52947;BME280;45776;40.400;17.260;2022-08-23T08:10:23;100656.94;;;26.75;100.00
52947;BME280;45776;40.400;17.260;2022-08-23T08:12:49;100661.56;;;26.70;100.00
52947;BME280;45776;40.400;17.260;2022-08-23T08:15:15;100659.22;;;26.61;100.00
52947;BME280;45776;40.400;17.260;2022-08-23T08:17:41;100656.81;;;26.80;100.00
52947;BME280;45776;40.400;17.260;2022-08-23T08:20:07;100658.78;;;26.73;100.00
52947;BME280;45776;40.400;17.260;2022-08-23T08:22:33;100653.31;;;26.80;100.00
52947;BME280;45776;40.400;17.260;2022-08-23T08:24:58;100644.94;;;26.64;100.00
52947;BME280;45776;40.400;17.260;2022-08-23T08:27:24;100650.75;;;26.76;100.00
52947;BME280;45776;40.400;17.260;2022-08-23T08:29:49;100656.63;;;26.59;100.00
52947;BME280;45776;40.400;17.260;2022-08-23T08:32:15;100658.19;;;26.11;100.00
52947;BME280;45776;40.400;17.260;2022-08-23T08:34:41;100669.91;;;26.33;100.00
52947;BME280;45776;40.400;17.260;2022-08-23T08:37:06;100657.53;;;26.32;100.00
52947;BME280;45776;40.400;17.260;2022-08-23T08:39:32;100666.19;;;26.37;100.00
52947;BME280;45776;40.400;17.260;2022-08-23T08:44:47;100665.78;;;26.22;100.00
52947;BME280;45776;40.400;17.260;2022-08-23T08:52:44;100670.03;;;26.28;100.00
52947;BME280;45776;40.400;17.260;2022-08-23T08:55:16;100669.59;;;26.42;100.00
52947;BME280;45776;40.400;17.260;2022-08-23T08:57:45;100671.72;;;26.30;100.00
52947;BME280;45776;40.400;17.260;2022-08-23T09:00:24;100658.44;;;26.30;100.00
52947;BME280;45776;40.400;17.260;2022-08-23T09:02:50;100665.66;;;26.27;100.00
52947;BME280;45776;40.400;17.260;2022-08-23T09:05:25;100662.00;;;26.31;100.00
52947;BME280;45776;40.400;17.260;2022-08-23T09:18:38;100655.31;;;26.71;100.00
52947;BME280;45776;40.400;17.260;2022-08-23T09:21:06;100654.72;;;26.36;100.00
52947;BME280;45776;40.400;17.260;2022-08-23T09:23:39;100656.09;;;26.48;100.00
52947;BME280;45776;40.400;17.260;2022-08-23T09:26:20;100668.63;;;26.44;100.00
52947;BME280;45776;40.400;17.260;2022-08-23T09:28:49;100664.31;;;26.67;100.00
52947;BME280;45776;40.400;17.260;2022-08-23T09:31:40;100669.78;;;26.63;100.00
52947;BME280;45776;40.400;17.260;2022-08-23T09:34:08;100680.84;;;26.75;100.00
52947;BME280;45776;40.400;17.260;2022-08-23T09:36:36;100683.81;;;26.66;100.00
52947;BME280;45776;40.400;17.260;2022-08-23T09:39:07;100683.81;;;26.93;100.00
52947;BME280;45776;40.400;17.260;2022-08-23T09:41:48;100680.94;;;26.72;100.00
52947;BME280;45776;40.400;17.260;2022-08-23T09:44:38;100687.03;;;27.03;100.00
52947;BME280;45776;40.400;17.260;2022-08-23T09:47:15;100671.81;;;27.06;100.00
52947;BME280;45776;40.400;17.260;2022-08-23T09:49:43;100683.38;;;26.80;100.00
52947;BME280;45776;40.400;17.260;2022-08-23T09:52:30;100671.19;;;27.00;100.00
52947;BME280;45776;40.400;17.260;2022-08-23T09:55:04;100676.84;;;27.39;100.00
52947;BME280;45776;40.400;17.260;2022-08-23T09:57:32;100668.78;;;27.43;100.00
52947;BME280;45776;40.400;17.260;2022-08-23T10:00:21;100682.75;;;27.48;100.00
52947;BME280;45776;40.400;17.260;2022-08-23T10:02:48;100676.41;;;27.76;100.00
52947;BME280;45776;40.400;17.260;2022-08-23T10:05:37;100674.44;;;27.57;100.00
52947;BME280;45776;40.400;17.260;2022-08-23T10:08:04;100670.19;;;27.75;100.00
52947;BME280;45776;40.400;17.260;2022-08-23T10:10:40;100667.72;;;27.70;100.00
52947;BME280;45776;40.400;17.260;2022-08-23T10:13:12;100661.28;;;27.76;100.00
52947;BME280;45776;40.400;17.260;2022-08-23T10:18:41;100661.13;;;28.03;100.00
52947;BME280;45776;40.400;17.260;2022-08-23T10:24:14;100650.44;;;27.59;100.00
52947;BME280;45776;40.400;17.260;2022-08-23T10:30:26;100652.63;;;27.23;100.00
52947;BME280;45776;40.400;17.260;2022-08-23T10:33:05;100655.66;;;27.13;100.00
52947;BME280;45776;40.400;17.260;2022-08-23T10:35:55;100654.63;;;27.40;100.00
52947;BME280;45776;40.400;17.260;2022-08-23T10:46:27;100649.53;;;27.11;100.00
52947;BME280;45776;40.400;17.260;2022-08-23T10:48:56;100648.78;;;27.07;100.00
52947;BME280;45776;40.400;17.260;2022-08-23T10:51:33;100641.41;;;27.39;100.00
52947;BME280;45776;40.400;17.260;2022-08-23T10:54:18;100633.28;;;27.18;100.00
52947;BME280;45776;40.400;17.260;2022-08-23T10:56:58;100641.94;;;27.49;100.00
52947;BME280;45776;40.400;17.260;2022-08-23T10:59:25;100630.50;;;27.47;100.00
52947;BME280;45776;40.400;17.260;2022-08-23T11:02:17;100636.88;;;27.43;100.00
52947;BME280;45776;40.400;17.260;2022-08-23T11:04:55;100622.81;;;27.37;100.00
52947;BME280;45776;40.400;17.260;2022-08-23T11:10:08;100626.84;;;27.49;100.00
52947;BME280;45776;40.400;17.260;2022-08-23T11:12:50;100623.41;;;27.69;100.00
52947;BME280;45776;40.400;17.260;2022-08-23T11:15:21;100631.59;;;27.87;100.00
52947;BME280;45776;40.400;17.260;2022-08-23T11:23:47;100621.03;;;28.08;100.00
52947;BME280;45776;40.400;17.260;2022-08-23T11:34:22;100626.53;;;28.67;100.00
52947;BME280;45776;40.400;17.260;2022-08-23T11:42:47;100611.50;;;29.83;100.00
52947;BME280;45776;40.400;17.260;2022-08-23T11:48:11;100612.06;;;30.27;100.00
52947;BME280;45776;40.400;17.260;2022-08-23T11:56:08;100605.69;;;30.12;100.00
52947;BME280;45776;40.400;17.260;2022-08-23T12:01:40;100603.09;;;30.10;100.00
52947;BME280;45776;40.400;17.260;2022-08-23T12:04:26;100604.50;;;30.35;100.00
52947;BME280;45776;40.400;17.260;2022-08-23T12:06:56;100604.25;;;30.22;100.00
52947;BME280;45776;40.400;17.260;2022-08-23T12:17:02;100597.06;;;31.26;96.59
52947;BME280;45776;40.400;17.260;2022-08-23T12:19:34;100588.03;;;31.77;100.00
52947;BME280;45776;40.400;17.260;2022-08-23T12:22:13;100599.53;;;31.79;94.06
52947;BME280;45776;40.400;17.260;2022-08-23T12:24:45;100598.97;;;32.04;91.66
52947;BME280;45776;40.400;17.260;2022-08-23T12:38:10;100593.09;;;30.14;100.00
52947;BME280;45776;40.400;17.260;2022-08-23T12:40:42;100593.91;;;30.16;100.00
52947;BME280;45776;40.400;17.260;2022-08-23T12:43:10;100593.53;;;30.59;100.00
52947;BME280;45776;40.400;17.260;2022-08-23T12:45:46;100587.81;;;30.82;100.00
52947;BME280;45776;40.400;17.260;2022-08-23T12:48:18;100580.53;;;31.68;100.00
52947;BME280;45776;40.400;17.260;2022-08-23T12:50:51;100579.41;;;31.24;100.00
52947;BME280;45776;40.400;17.260;2022-08-23T12:53:30;100579.56;;;30.87;100.00
52947;BME280;45776;40.400;17.260;2022-08-23T12:56:04;100580.00;;;30.62;100.00
52947;BME280;45776;40.400;17.260;2022-08-23T12:58:33;100584.88;;;30.36;100.00
52947;BME280;45776;40.400;17.260;2022-08-23T13:01:03;100585.88;;;31.20;100.00
52947;BME280;45776;40.400;17.260;2022-08-23T13:03:33;100581.84;;;30.95;100.00
52947;BME280;45776;40.400;17.260;2022-08-23T13:06:15;100589.75;;;30.80;100.00
52947;BME280;45776;40.400;17.260;2022-08-23T13:11:41;100588.59;;;30.68;100.00
52947;BME280;45776;40.400;17.260;2022-08-23T13:16:46;100582.78;;;30.60;100.00
52947;BME280;45776;40.400;17.260;2022-08-23T13:22:29;100584.16;;;30.15;100.00
52947;BME280;45776;40.400;17.260;2022-08-23T13:43:07;100597.13;;;30.05;100.00
52947;BME280;45776;40.400;17.260;2022-08-23T13:45:36;100602.25;;;29.90;100.00
52947;BME280;45776;40.400;17.260;2022-08-23T13:48:09;100609.81;;;29.63;100.00
52947;BME280;45776;40.400;17.260;2022-08-23T13:50:37;100611.75;;;29.59;100.00
52947;BME280;45776;40.400;17.260;2022-08-23T13:53:04;100596.03;;;29.72;100.00
52947;BME280;45776;40.400;17.260;2022-08-23T13:55:29;100601.59;;;29.85;100.00
52947;BME280;45776;40.400;17.260;2022-08-23T13:57:56;100607.53;;;29.73;100.00
52947;BME280;45776;40.400;17.260;2022-08-23T14:00:23;100615.06;;;29.65;100.00
52947;BME280;45776;40.400;17.260;2022-08-23T14:02:50;100629.56;;;29.40;100.00
52947;BME280;45776;40.400;17.260;2022-08-23T14:05:19;100635.44;;;29.27;100.00
52947;BME280;45776;40.400;17.260;2022-08-23T14:07:47;100627.88;;;28.98;100.00
52947;BME280;45776;40.400;17.260;2022-08-23T14:10:13;100622.66;;;28.75;100.00
52947;BME280;45776;40.400;17.260;2022-08-23T14:12:42;100631.81;;;28.47;100.00
52947;BME280;45776;40.400;17.260;2022-08-23T14:15:10;100618.41;;;28.28;100.00
52947;BME280;45776;40.400;17.260;2022-08-23T14:17:44;100626.56;;;28.46;100.00
52947;BME280;45776;40.400;17.260;2022-08-23T14:20:15;100640.88;;;27.99;100.00
52947;BME280;45776;40.400;17.260;2022-08-23T14:22:41;100632.97;;;28.62;100.00
52947;BME280;45776;40.400;17.260;2022-08-23T14:25:08;100631.06;;;29.65;100.00
52947;BME280;45776;40.400;17.260;2022-08-23T14:27:34;100645.00;;;30.27;100.00
52947;BME280;45776;40.400;17.260;2022-08-23T14:30:01;100647.38;;;29.39;100.00
52947;BME280;45776;40.400;17.260;2022-08-23T14:32:28;100638.13;;;29.27;100.00
52947;BME280;45776;40.400;17.260;2022-08-23T14:34:54;100623.56;;;28.95;100.00
52947;BME280;45776;40.400;17.260;2022-08-23T14:37:19;100632.06;;;29.03;100.00
52947;BME280;45776;40.400;17.260;2022-08-23T14:39:45;100624.38;;;28.97;100.00
52947;BME280;45776;40.400;17.260;2022-08-23T14:42:11;100624.88;;;28.64;100.00
52947;BME280;45776;40.400;17.260;2022-08-23T14:44:41;100617.25;;;28.77;100.00
52947;BME280;45776;40.400;17.260;2022-08-23T14:47:06;100627.56;;;28.64;100.00
52947;BME280;45776;40.400;17.260;2022-08-23T14:49:32;100615.06;;;28.64;100.00
52947;BME280;45776;40.400;17.260;2022-08-23T14:51:58;100630.22;;;28.64;100.00
52947;BME280;45776;40.400;17.260;2022-08-23T14:54:24;100613.78;;;28.75;100.00